sensor_id;sensor_type;location;lat;lon;timestamp;P1;durP1;ratioP1;P2;durP2;ratioP2
28009;SDS011;15334;49.494;8.410;2022-10-15T00:01:26;2.47;;;1.40;;
28009;SDS011;15334;49.494;8.410;2022-10-15T00:03:54;2.03;;;1.33;;
28009;SDS011;15334;49.494;8.410;2022-10-15T00:06:22;2.03;;;1.23;;
28009;SDS011;15334;49.494;8.410;2022-10-15T00:08:52;1.80;;;1.10;;
28009;SDS011;15334;49.494;8.410;2022-10-15T00:11:23;1.50;;;1.00;;
28009;SDS011;15334;49.494;8.410;2022-10-15T00:13:52;2.45;;;1.23;;
28009;SDS011;15334;49.494;8.410;2022-10-15T00:16:22;2.35;;;0.90;;
28009;SDS011;15334;49.494;8.410;2022-10-15T00:18:51;2.75;;;1.27;;
28009;SDS011;15334;49.494;8.410;2022-10-15T00:21:22;4.28;;;1.40;;
28009;SDS011;15334;49.494;8.410;2022-10-15T00:23:50;2.13;;;1.00;;
28009;SDS011;15334;49.494;8.410;2022-10-15T00:26:18;1.70;;;0.95;;
28009;SDS011;15334;49.494;8.410;2022-10-15T00:28:50;3.35;;;1.27;;
28009;SDS011;15334;49.494;8.410;2022-10-15T00:31:19;1.63;;;1.00;;
28009;SDS011;15334;49.494;8.410;2022-10-15T00:33:52;2.65;;;1.30;;
28009;SDS011;15334;49.494;8.410;2022-10-15T00:36:24;2.47;;;1.23;;
28009;SDS011;15334;49.494;8.410;2022-10-15T00:38:53;3.47;;;1.20;;
28009;SDS011;15334;49.494;8.410;2022-10-15T00:41:22;1.65;;;1.10;;
28009;SDS011;15334;49.494;8.410;2022-10-15T00:43:55;2.28;;;1.20;;
28009;SDS011;15334;49.494;8.410;2022-10-15T00:46:25;2.90;;;1.17;;
28009;SDS011;15334;49.494;8.410;2022-10-15T00:48:57;1.67;;;1.02;;
28009;SDS011;15334;49.494;8.410;2022-10-15T00:51:29;1.17;;;0.90;;
28009;SDS011;15334;49.494;8.410;2022-10-15T00:54:01;1.50;;;0.90;;
28009;SDS011;15334;49.494;8.410;2022-10-15T00:56:29;1.58;;;1.02;;
28009;SDS011;15334;49.494;8.410;2022-10-15T00:59:00;1.38;;;0.98;;
28009;SDS011;15334;49.494;8.410;2022-10-15T01:01:28;2.40;;;1.38;;
28009;SDS011;15334;49.494;8.410;2022-10-15T01:03:56;2.28;;;1.25;;
28009;SDS011;15334;49.494;8.410;2022-10-15T01:06:25;1.45;;;1.20;;
28009;SDS011;15334;49.494;8.410;2022-10-15T01:08:53;2.28;;;0.85;;
28009;SDS011;15334;49.494;8.410;2022-10-15T01:11:29;2.20;;;1.25;;
28009;SDS011;15334;49.494;8.410;2022-10-15T01:14:09;1.85;;;1.30;;
28009;SDS011;15334;49.494;8.410;2022-10-15T01:16:50;1.15;;;0.77;;
28009;SDS011;15334;49.494;8.410;2022-10-15T01:19:25;0.95;;;0.75;;
28009;SDS011;15334;49.494;8.410;2022-10-15T01:22:03;1.73;;;0.90;;
28009;SDS011;15334;49.494;8.410;2022-10-15T01:24:42;1.45;;;0.90;;
28009;SDS011;15334;49.494;8.410;2022-10-15T01:27:26;1.60;;;0.80;;
28009;SDS011;15334;49.494;8.410;2022-10-15T01:35:53;3.05;;;0.75;;
28009;SDS011;15334;49.494;8.410;2022-10-15T01:38:37;1.50;;;0.80;;
28009;SDS011;15334;49.494;8.410;2022-10-15T01:41:13;1.08;;;0.70;;
28009;SDS011;15334;49.494;8.410;2022-10-15T01:43:46;1.15;;;0.88;;
28009;SDS011;15334;49.494;8.410;2022-10-15T01:46:22;1.08;;;0.60;;
28009;SDS011;15334;49.494;8.410;2022-10-15T01:48:53;1.27;;;0.60;;
28009;SDS011;15334;49.494;8.410;2022-10-15T01:51:24;1.38;;;0.85;;
28009;SDS011;15334;49.494;8.410;2022-10-15T01:53:54;1.13;;;0.73;;
28009;SDS011;15334;49.494;8.410;2022-10-15T01:56:24;1.80;;;0.95;;
28009;SDS011;15334;49.494;8.410;2022-10-15T01:58:53;1.30;;;0.82;;
28009;SDS011;15334;49.494;8.410;2022-10-15T02:01:24;0.85;;;0.65;;
28009;SDS011;15334;49.494;8.410;2022-10-15T02:03:52;1.17;;;0.80;;
28009;SDS011;15334;49.494;8.410;2022-10-15T02:06:22;2.80;;;0.80;;
28009;SDS011;15334;49.494;8.410;2022-10-15T02:09:00;1.02;;;0.68;;
28009;SDS011;15334;49.494;8.410;2022-10-15T02:11:37;1.38;;;0.60;;
28009;SDS011;15334;49.494;8.410;2022-10-15T02:14:18;1.00;;;0.68;;
28009;SDS011;15334;49.494;8.410;2022-10-15T02:16:55;0.68;;;0.60;;
28009;SDS011;15334;49.494;8.410;2022-10-15T02:19:30;3.10;;;0.50;;
28009;SDS011;15334;49.494;8.410;2022-10-15T02:22:05;1.35;;;0.68;;
28009;SDS011;15334;49.494;8.410;2022-10-15T02:27:06;1.52;;;0.47;;
28009;SDS011;15334;49.494;8.410;2022-10-15T02:29:36;2.30;;;0.52;;
28009;SDS011;15334;49.494;8.410;2022-10-15T02:32:09;0.93;;;0.63;;
28009;SDS011;15334;49.494;8.410;2022-10-15T02:34:38;1.02;;;0.50;;
28009;SDS011;15334;49.494;8.410;2022-10-15T02:37:07;0.77;;;0.50;;
28009;SDS011;15334;49.494;8.410;2022-10-15T02:39:35;1.15;;;0.55;;
28009;SDS011;15334;49.494;8.410;2022-10-15T02:42:03;2.25;;;0.52;;
28009;SDS011;15334;49.494;8.410;2022-10-15T02:44:32;1.55;;;0.63;;
28009;SDS011;15334;49.494;8.410;2022-10-15T02:47:00;0.90;;;0.57;;
28009;SDS011;15334;49.494;8.410;2022-10-15T02:49:30;1.42;;;0.50;;
28009;SDS011;15334;49.494;8.410;2022-10-15T02:51:58;1.58;;;0.55;;
28009;SDS011;15334;49.494;8.410;2022-10-15T02:54:26;0.73;;;0.45;;
28009;SDS011;15334;49.494;8.410;2022-10-15T02:56:54;2.35;;;0.50;;
28009;SDS011;15334;49.494;8.410;2022-10-15T02:59:22;0.80;;;0.60;;
28009;SDS011;15334;49.494;8.410;2022-10-15T03:01:50;0.40;;;0.40;;
28009;SDS011;15334;49.494;8.410;2022-10-15T03:04:18;0.47;;;0.35;;
28009;SDS011;15334;49.494;8.410;2022-10-15T03:06:47;0.63;;;0.38;;
28009;SDS011;15334;49.494;8.410;2022-10-15T03:09:15;0.47;;;0.38;;
28009;SDS011;15334;49.494;8.410;2022-10-15T03:11:44;2.05;;;0.50;;
28009;SDS011;15334;49.494;8.410;2022-10-15T03:14:12;0.30;;;0.30;;
28009;SDS011;15334;49.494;8.410;2022-10-15T03:16:40;3.05;;;0.90;;
28009;SDS011;15334;49.494;8.410;2022-10-15T03:19:08;0.65;;;0.50;;
28009;SDS011;15334;49.494;8.410;2022-10-15T03:21:35;3.40;;;0.57;;
28009;SDS011;15334;49.494;8.410;2022-10-15T03:24:05;0.40;;;0.40;;
28009;SDS011;15334;49.494;8.410;2022-10-15T03:26:33;3.60;;;0.50;;
28009;SDS011;15334;49.494;8.410;2022-10-15T03:29:01;1.95;;;0.50;;
28009;SDS011;15334;49.494;8.410;2022-10-15T03:31:29;0.73;;;0.50;;
28009;SDS011;15334;49.494;8.410;2022-10-15T03:33:57;3.72;;;0.60;;
28009;SDS011;15334;49.494;8.410;2022-10-15T03:36:25;0.60;;;0.40;;
28009;SDS011;15334;49.494;8.410;2022-10-15T03:38:53;1.05;;;0.60;;
28009;SDS011;15334;49.494;8.410;2022-10-15T03:41:23;0.30;;;0.30;;
28009;SDS011;15334;49.494;8.410;2022-10-15T03:43:51;0.55;;;0.43;;
28009;SDS011;15334;49.494;8.410;2022-10-15T03:46:18;0.43;;;0.30;;
28009;SDS011;15334;49.494;8.410;2022-10-15T03:48:47;3.15;;;0.45;;
28009;SDS011;15334;49.494;8.410;2022-10-15T03:51:18;0.75;;;0.45;;
28009;SDS011;15334;49.494;8.410;2022-10-15T03:53:51;0.88;;;0.60;;
28009;SDS011;15334;49.494;8.410;2022-10-15T03:56:19;0.40;;;0.38;;
28009;SDS011;15334;49.494;8.410;2022-10-15T03:58:49;0.32;;;0.32;;
28009;SDS011;15334;49.494;8.410;2022-10-15T04:01:17;0.75;;;0.50;;
28009;SDS011;15334;49.494;8.410;2022-10-15T04:03:45;0.38;;;0.38;;
28009;SDS011;15334;49.494;8.410;2022-10-15T04:06:13;0.80;;;0.40;;
28009;SDS011;15334;49.494;8.410;2022-10-15T04:08:41;1.10;;;0.40;;
28009;SDS011;15334;49.494;8.410;2022-10-15T04:11:09;0.40;;;0.38;;
28009;SDS011;15334;49.494;8.410;2022-10-15T04:13:37;4.45;;;0.47;;
28009;SDS011;15334;49.494;8.410;2022-10-15T04:16:12;0.40;;;0.40;;
28009;SDS011;15334;49.494;8.410;2022-10-15T04:18:40;1.20;;;0.47;;
28009;SDS011;15334;49.494;8.410;2022-10-15T04:21:08;0.40;;;0.30;;
28009;SDS011;15334;49.494;8.410;2022-10-15T04:23:36;0.43;;;0.28;;
28009;SDS011;15334;49.494;8.410;2022-10-15T04:26:04;0.40;;;0.38;;
28009;SDS011;15334;49.494;8.410;2022-10-15T04:28:32;4.18;;;0.70;;
28009;SDS011;15334;49.494;8.410;2022-10-15T04:31:00;2.25;;;0.40;;
28009;SDS011;15334;49.494;8.410;2022-10-15T04:33:30;0.40;;;0.40;;
28009;SDS011;15334;49.494;8.410;2022-10-15T04:35:58;0.40;;;0.40;;
28009;SDS011;15334;49.494;8.410;2022-10-15T04:38:27;0.60;;;0.40;;
28009;SDS011;15334;49.494;8.410;2022-10-15T04:40:59;0.75;;;0.40;;
28009;SDS011;15334;49.494;8.410;2022-10-15T04:43:28;0.93;;;0.57;;
28009;SDS011;15334;49.494;8.410;2022-10-15T04:45:56;1.40;;;0.55;;
28009;SDS011;15334;49.494;8.410;2022-10-15T04:48:26;0.85;;;0.40;;
28009;SDS011;15334;49.494;8.410;2022-10-15T04:50:58;1.17;;;0.60;;
28009;SDS011;15334;49.494;8.410;2022-10-15T04:53:29;1.63;;;0.73;;
28009;SDS011;15334;49.494;8.410;2022-10-15T04:56:01;0.40;;;0.40;;
28009;SDS011;15334;49.494;8.410;2022-10-15T04:58:30;2.20;;;0.50;;
28009;SDS011;15334;49.494;8.410;2022-10-15T05:00:58;2.05;;;0.50;;
28009;SDS011;15334;49.494;8.410;2022-10-15T05:03:27;0.80;;;0.50;;
28009;SDS011;15334;49.494;8.410;2022-10-15T05:06:00;1.20;;;0.60;;
28009;SDS011;15334;49.494;8.410;2022-10-15T05:08:28;1.08;;;0.57;;
28009;SDS011;15334;49.494;8.410;2022-10-15T05:10:59;0.75;;;0.45;;
28009;SDS011;15334;49.494;8.410;2022-10-15T05:13:28;0.80;;;0.50;;
28009;SDS011;15334;49.494;8.410;2022-10-15T05:15:56;0.88;;;0.70;;
28009;SDS011;15334;49.494;8.410;2022-10-15T05:18:34;0.52;;;0.50;;
28009;SDS011;15334;49.494;8.410;2022-10-15T05:21:04;0.85;;;0.60;;
28009;SDS011;15334;49.494;8.410;2022-10-15T05:23:32;0.55;;;0.55;;
28009;SDS011;15334;49.494;8.410;2022-10-15T05:26:01;0.60;;;0.55;;
28009;SDS011;15334;49.494;8.410;2022-10-15T05:28:30;2.05;;;0.70;;
28009;SDS011;15334;49.494;8.410;2022-10-15T05:31:02;1.10;;;0.70;;
28009;SDS011;15334;49.494;8.410;2022-10-15T05:33:30;1.58;;;0.77;;
28009;SDS011;15334;49.494;8.410;2022-10-15T05:36:08;1.27;;;0.65;;
28009;SDS011;15334;49.494;8.410;2022-10-15T05:38:36;1.02;;;0.70;;
28009;SDS011;15334;49.494;8.410;2022-10-15T05:41:08;1.27;;;0.68;;
28009;SDS011;15334;49.494;8.410;2022-10-15T05:43:36;0.65;;;0.50;;
28009;SDS011;15334;49.494;8.410;2022-10-15T05:46:07;1.17;;;0.70;;
28009;SDS011;15334;49.494;8.410;2022-10-15T05:48:35;0.73;;;0.65;;
28009;SDS011;15334;49.494;8.410;2022-10-15T05:51:03;1.08;;;0.73;;
28009;SDS011;15334;49.494;8.410;2022-10-15T05:53:34;1.17;;;0.50;;
28009;SDS011;15334;49.494;8.410;2022-10-15T05:56:05;1.55;;;1.08;;
28009;SDS011;15334;49.494;8.410;2022-10-15T05:58:34;1.67;;;0.77;;
28009;SDS011;15334;49.494;8.410;2022-10-15T06:01:04;1.02;;;0.75;;
28009;SDS011;15334;49.494;8.410;2022-10-15T06:03:34;1.10;;;0.80;;
28009;SDS011;15334;49.494;8.410;2022-10-15T06:06:03;1.75;;;1.00;;
28009;SDS011;15334;49.494;8.410;2022-10-15T06:08:31;2.17;;;0.85;;
28009;SDS011;15334;49.494;8.410;2022-10-15T06:11:02;2.30;;;0.77;;
28009;SDS011;15334;49.494;8.410;2022-10-15T06:13:35;1.50;;;0.70;;
28009;SDS011;15334;49.494;8.410;2022-10-15T06:16:07;1.45;;;1.00;;
28009;SDS011;15334;49.494;8.410;2022-10-15T06:18:36;1.83;;;1.02;;
28009;SDS011;15334;49.494;8.410;2022-10-15T06:21:08;2.28;;;1.10;;
28009;SDS011;15334;49.494;8.410;2022-10-15T06:23:37;2.22;;;0.98;;
28009;SDS011;15334;49.494;8.410;2022-10-15T06:26:08;1.90;;;1.00;;
28009;SDS011;15334;49.494;8.410;2022-10-15T06:28:36;2.25;;;0.77;;
28009;SDS011;15334;49.494;8.410;2022-10-15T06:31:05;2.35;;;1.02;;
28009;SDS011;15334;49.494;8.410;2022-10-15T06:33:34;1.27;;;0.80;;
28009;SDS011;15334;49.494;8.410;2022-10-15T06:36:03;2.17;;;1.13;;
28009;SDS011;15334;49.494;8.410;2022-10-15T06:38:33;3.88;;;1.13;;
28009;SDS011;15334;49.494;8.410;2022-10-15T06:41:02;2.25;;;1.10;;
28009;SDS011;15334;49.494;8.410;2022-10-15T06:43:32;1.60;;;1.00;;
28009;SDS011;15334;49.494;8.410;2022-10-15T06:46:01;2.33;;;1.20;;
28009;SDS011;15334;49.494;8.410;2022-10-15T06:48:30;3.53;;;1.10;;
28009;SDS011;15334;49.494;8.410;2022-10-15T06:51:01;2.00;;;0.98;;
28009;SDS011;15334;49.494;8.410;2022-10-15T06:53:30;1.90;;;1.02;;
28009;SDS011;15334;49.494;8.410;2022-10-15T06:55:58;2.90;;;1.17;;
28009;SDS011;15334;49.494;8.410;2022-10-15T06:58:28;2.65;;;1.45;;
28009;SDS011;15334;49.494;8.410;2022-10-15T07:01:00;2.88;;;1.27;;
28009;SDS011;15334;49.494;8.410;2022-10-15T07:03:28;3.97;;;1.10;;
28009;SDS011;15334;49.494;8.410;2022-10-15T07:06:00;2.95;;;1.30;;
28009;SDS011;15334;49.494;8.410;2022-10-15T07:08:31;3.20;;;1.45;;
28009;SDS011;15334;49.494;8.410;2022-10-15T07:11:02;4.07;;;1.60;;
28009;SDS011;15334;49.494;8.410;2022-10-15T07:13:31;2.88;;;1.73;;
28009;SDS011;15334;49.494;8.410;2022-10-15T07:16:03;4.57;;;2.03;;
28009;SDS011;15334;49.494;8.410;2022-10-15T07:18:31;2.15;;;1.20;;
28009;SDS011;15334;49.494;8.410;2022-10-15T07:21:00;5.15;;;1.50;;
28009;SDS011;15334;49.494;8.410;2022-10-15T07:23:28;3.80;;;1.48;;
28009;SDS011;15334;49.494;8.410;2022-10-15T07:25:56;3.75;;;1.60;;
28009;SDS011;15334;49.494;8.410;2022-10-15T07:28:25;5.30;;;1.80;;
28009;SDS011;15334;49.494;8.410;2022-10-15T07:30:53;3.05;;;1.27;;
28009;SDS011;15334;49.494;8.410;2022-10-15T07:33:23;3.63;;;1.60;;
28009;SDS011;15334;49.494;8.410;2022-10-15T07:35:51;1.92;;;1.02;;
28009;SDS011;15334;49.494;8.410;2022-10-15T07:38:19;2.72;;;1.63;;
28009;SDS011;15334;49.494;8.410;2022-10-15T07:40:47;3.85;;;1.80;;
28009;SDS011;15334;49.494;8.410;2022-10-15T07:43:14;4.32;;;2.38;;
28009;SDS011;15334;49.494;8.410;2022-10-15T07:45:46;3.25;;;1.73;;
28009;SDS011;15334;49.494;8.410;2022-10-15T07:48:15;5.07;;;2.00;;
28009;SDS011;15334;49.494;8.410;2022-10-15T07:50:52;4.55;;;1.77;;
28009;SDS011;15334;49.494;8.410;2022-10-15T07:53:20;4.15;;;1.85;;
28009;SDS011;15334;49.494;8.410;2022-10-15T07:55:48;4.30;;;1.70;;
28009;SDS011;15334;49.494;8.410;2022-10-15T07:58:16;4.18;;;2.00;;
28009;SDS011;15334;49.494;8.410;2022-10-15T08:00:45;4.57;;;1.90;;
28009;SDS011;15334;49.494;8.410;2022-10-15T08:03:12;4.53;;;1.85;;
28009;SDS011;15334;49.494;8.410;2022-10-15T08:05:40;3.88;;;1.73;;
28009;SDS011;15334;49.494;8.410;2022-10-15T08:08:10;3.28;;;1.67;;
28009;SDS011;15334;49.494;8.410;2022-10-15T08:10:38;3.40;;;1.75;;
28009;SDS011;15334;49.494;8.410;2022-10-15T08:13:06;5.80;;;2.13;;
28009;SDS011;15334;49.494;8.410;2022-10-15T08:15:33;3.15;;;1.75;;
28009;SDS011;15334;49.494;8.410;2022-10-15T08:18:04;5.03;;;1.85;;
28009;SDS011;15334;49.494;8.410;2022-10-15T08:20:33;4.22;;;1.50;;
28009;SDS011;15334;49.494;8.410;2022-10-15T08:23:00;3.25;;;1.42;;
28009;SDS011;15334;49.494;8.410;2022-10-15T08:25:30;6.53;;;1.90;;
28009;SDS011;15334;49.494;8.410;2022-10-15T08:27:58;4.72;;;1.80;;
28009;SDS011;15334;49.494;8.410;2022-10-15T08:30:26;5.70;;;1.80;;
28009;SDS011;15334;49.494;8.410;2022-10-15T08:32:54;5.30;;;1.80;;
28009;SDS011;15334;49.494;8.410;2022-10-15T08:35:22;2.95;;;1.80;;
28009;SDS011;15334;49.494;8.410;2022-10-15T08:37:52;3.72;;;1.92;;
28009;SDS011;15334;49.494;8.410;2022-10-15T08:40:20;2.72;;;1.50;;
28009;SDS011;15334;49.494;8.410;2022-10-15T08:42:51;4.90;;;1.60;;
28009;SDS011;15334;49.494;8.410;2022-10-15T08:45:21;2.85;;;1.50;;
28009;SDS011;15334;49.494;8.410;2022-10-15T08:47:55;3.35;;;1.40;;
28009;SDS011;15334;49.494;8.410;2022-10-15T08:50:33;2.08;;;1.38;;
28009;SDS011;15334;49.494;8.410;2022-10-15T08:53:08;1.25;;;1.00;;
28009;SDS011;15334;49.494;8.410;2022-10-15T08:55:39;2.10;;;1.30;;
28009;SDS011;15334;49.494;8.410;2022-10-15T08:58:16;1.83;;;1.30;;
28009;SDS011;15334;49.494;8.410;2022-10-15T09:00:48;2.30;;;1.35;;
28009;SDS011;15334;49.494;8.410;2022-10-15T09:03:30;3.40;;;1.60;;
28009;SDS011;15334;49.494;8.410;2022-10-15T09:06:06;2.22;;;1.27;;
28009;SDS011;15334;49.494;8.410;2022-10-15T09:08:41;1.95;;;1.25;;
28009;SDS011;15334;49.494;8.410;2022-10-15T09:11:18;2.17;;;1.15;;
28009;SDS011;15334;49.494;8.410;2022-10-15T09:13:55;2.20;;;1.30;;
28009;SDS011;15334;49.494;8.410;2022-10-15T09:16:26;3.95;;;1.50;;
28009;SDS011;15334;49.494;8.410;2022-10-15T09:19:01;5.22;;;1.50;;
28009;SDS011;15334;49.494;8.410;2022-10-15T09:21:32;2.42;;;1.20;;
28009;SDS011;15334;49.494;8.410;2022-10-15T09:24:02;1.70;;;1.10;;
28009;SDS011;15334;49.494;8.410;2022-10-15T09:26:32;3.78;;;1.23;;
28009;SDS011;15334;49.494;8.410;2022-10-15T09:31:49;2.60;;;1.10;;
28009;SDS011;15334;49.494;8.410;2022-10-15T09:34:21;2.60;;;1.45;;
28009;SDS011;15334;49.494;8.410;2022-10-15T09:36:57;1.70;;;1.15;;
28009;SDS011;15334;49.494;8.410;2022-10-15T09:39:36;2.75;;;1.85;;
28009;SDS011;15334;49.494;8.410;2022-10-15T09:42:17;2.03;;;1.08;;
28009;SDS011;15334;49.494;8.410;2022-10-15T09:44:54;2.63;;;1.20;;
28009;SDS011;15334;49.494;8.410;2022-10-15T09:47:26;2.70;;;1.45;;
28009;SDS011;15334;49.494;8.410;2022-10-15T09:49:55;2.17;;;1.23;;
28009;SDS011;15334;49.494;8.410;2022-10-15T09:52:25;1.88;;;1.20;;
28009;SDS011;15334;49.494;8.410;2022-10-15T09:55:03;1.15;;;0.95;;
28009;SDS011;15334;49.494;8.410;2022-10-15T09:57:39;3.22;;;1.05;;
28009;SDS011;15334;49.494;8.410;2022-10-15T10:00:10;1.60;;;1.20;;
28009;SDS011;15334;49.494;8.410;2022-10-15T10:02:40;2.17;;;1.27;;
28009;SDS011;15334;49.494;8.410;2022-10-15T10:05:18;1.88;;;1.25;;
28009;SDS011;15334;49.494;8.410;2022-10-15T10:08:08;2.97;;;1.00;;
28009;SDS011;15334;49.494;8.410;2022-10-15T10:10:44;1.90;;;1.20;;
28009;SDS011;15334;49.494;8.410;2022-10-15T10:13:21;1.25;;;1.00;;
28009;SDS011;15334;49.494;8.410;2022-10-15T10:15:55;1.67;;;0.80;;
28009;SDS011;15334;49.494;8.410;2022-10-15T10:18:29;1.25;;;0.90;;
28009;SDS011;15334;49.494;8.410;2022-10-15T10:20:58;4.32;;;1.17;;
28009;SDS011;15334;49.494;8.410;2022-10-15T10:23:29;1.50;;;0.70;;
28009;SDS011;15334;49.494;8.410;2022-10-15T10:26:00;1.65;;;0.90;;
28009;SDS011;15334;49.494;8.410;2022-10-15T10:28:33;0.85;;;0.73;;
28009;SDS011;15334;49.494;8.410;2022-10-15T10:31:10;2.35;;;0.82;;
28009;SDS011;15334;49.494;8.410;2022-10-15T10:33:42;2.38;;;0.80;;
28009;SDS011;15334;49.494;8.410;2022-10-15T10:36:19;1.20;;;0.90;;
28009;SDS011;15334;49.494;8.410;2022-10-15T10:38:54;0.75;;;0.52;;
28009;SDS011;15334;49.494;8.410;2022-10-15T10:44:20;1.15;;;0.73;;
28009;SDS011;15334;49.494;8.410;2022-10-15T10:47:02;1.05;;;0.65;;
28009;SDS011;15334;49.494;8.410;2022-10-15T10:49:37;2.28;;;1.00;;
28009;SDS011;15334;49.494;8.410;2022-10-15T10:52:17;1.80;;;0.80;;
28009;SDS011;15334;49.494;8.410;2022-10-15T10:54:54;1.85;;;0.93;;
28009;SDS011;15334;49.494;8.410;2022-10-15T11:00:16;1.65;;;0.75;;
28009;SDS011;15334;49.494;8.410;2022-10-15T11:02:52;1.02;;;0.50;;
28009;SDS011;15334;49.494;8.410;2022-10-15T11:05:21;1.63;;;0.60;;
28009;SDS011;15334;49.494;8.410;2022-10-15T11:07:54;1.50;;;0.80;;
28009;SDS011;15334;49.494;8.410;2022-10-15T11:10:31;1.40;;;0.85;;
28009;SDS011;15334;49.494;8.410;2022-10-15T11:13:10;0.50;;;0.40;;
28009;SDS011;15334;49.494;8.410;2022-10-15T11:15:58;3.20;;;0.88;;
28009;SDS011;15334;49.494;8.410;2022-10-15T11:18:46;4.95;;;1.10;;
28009;SDS011;15334;49.494;8.410;2022-10-15T11:21:23;0.85;;;0.70;;
28009;SDS011;15334;49.494;8.410;2022-10-15T11:24:04;1.42;;;0.80;;
28009;SDS011;15334;49.494;8.410;2022-10-15T11:26:50;0.70;;;0.55;;
28009;SDS011;15334;49.494;8.410;2022-10-15T11:29:38;1.38;;;0.70;;
28009;SDS011;15334;49.494;8.410;2022-10-15T11:32:17;2.38;;;0.93;;
28009;SDS011;15334;49.494;8.410;2022-10-15T11:35:23;0.80;;;0.70;;
28009;SDS011;15334;49.494;8.410;2022-10-15T11:38:21;4.40;;;0.73;;
28009;SDS011;15334;49.494;8.410;2022-10-15T11:40:58;1.27;;;0.60;;
28009;SDS011;15334;49.494;8.410;2022-10-15T11:43:43;0.80;;;0.50;;
28009;SDS011;15334;49.494;8.410;2022-10-15T11:46:23;2.92;;;0.70;;
28009;SDS011;15334;49.494;8.410;2022-10-15T11:49:00;1.52;;;0.77;;
28009;SDS011;15334;49.494;8.410;2022-10-15T11:51:46;1.95;;;0.90;;
28009;SDS011;15334;49.494;8.410;2022-10-15T11:54:29;1.67;;;0.60;;
28009;SDS011;15334;49.494;8.410;2022-10-15T11:57:00;2.08;;;1.38;;
28009;SDS011;15334;49.494;8.410;2022-10-15T11:59:32;1.55;;;0.80;;
28009;SDS011;15334;49.494;8.410;2022-10-15T12:02:05;1.30;;;0.65;;
28009;SDS011;15334;49.494;8.410;2022-10-15T12:04:39;3.22;;;0.80;;
28009;SDS011;15334;49.494;8.410;2022-10-15T12:07:15;0.52;;;0.43;;
28009;SDS011;15334;49.494;8.410;2022-10-15T12:09:47;1.42;;;0.60;;
28009;SDS011;15334;49.494;8.410;2022-10-15T12:12:21;2.15;;;0.60;;
28009;SDS011;15334;49.494;8.410;2022-10-15T12:14:58;1.30;;;0.70;;
28009;SDS011;15334;49.494;8.410;2022-10-15T12:17:39;1.02;;;0.82;;
28009;SDS011;15334;49.494;8.410;2022-10-15T12:20:14;1.23;;;0.38;;
28009;SDS011;15334;49.494;8.410;2022-10-15T12:22:55;0.50;;;0.40;;
28009;SDS011;15334;49.494;8.410;2022-10-15T12:25:43;0.60;;;0.40;;
28009;SDS011;15334;49.494;8.410;2022-10-15T12:28:13;0.75;;;0.52;;
28009;SDS011;15334;49.494;8.410;2022-10-15T12:30:52;1.17;;;0.50;;
28009;SDS011;15334;49.494;8.410;2022-10-15T12:33:28;0.75;;;0.47;;
28009;SDS011;15334;49.494;8.410;2022-10-15T12:36:00;0.30;;;0.30;;
28009;SDS011;15334;49.494;8.410;2022-10-15T12:38:35;1.02;;;0.57;;
28009;SDS011;15334;49.494;8.410;2022-10-15T12:41:06;0.82;;;0.50;;
28009;SDS011;15334;49.494;8.410;2022-10-15T12:43:37;1.48;;;0.40;;
28009;SDS011;15334;49.494;8.410;2022-10-15T12:46:08;1.25;;;0.70;;
28009;SDS011;15334;49.494;8.410;2022-10-15T12:48:40;0.55;;;0.55;;
28009;SDS011;15334;49.494;8.410;2022-10-15T13:09:10;0.70;;;0.60;;
28009;SDS011;15334;49.494;8.410;2022-10-15T13:11:54;2.08;;;0.47;;
28009;SDS011;15334;49.494;8.410;2022-10-15T13:14:29;1.02;;;0.75;;
28009;SDS011;15334;49.494;8.410;2022-10-15T13:17:02;0.60;;;0.60;;
28009;SDS011;15334;49.494;8.410;2022-10-15T13:19:40;1.45;;;0.50;;
28009;SDS011;15334;49.494;8.410;2022-10-15T13:22:21;1.67;;;0.68;;
28009;SDS011;15334;49.494;8.410;2022-10-15T13:24:51;3.15;;;0.57;;
28009;SDS011;15334;49.494;8.410;2022-10-15T13:27:23;1.10;;;0.73;;
28009;SDS011;15334;49.494;8.410;2022-10-15T13:29:53;2.38;;;0.73;;
28009;SDS011;15334;49.494;8.410;2022-10-15T13:32:22;3.03;;;1.00;;
28009;SDS011;15334;49.494;8.410;2022-10-15T13:34:52;1.67;;;0.90;;
28009;SDS011;15334;49.494;8.410;2022-10-15T13:37:24;2.28;;;0.82;;
28009;SDS011;15334;49.494;8.410;2022-10-15T13:39:56;1.20;;;0.55;;
28009;SDS011;15334;49.494;8.410;2022-10-15T13:42:33;0.85;;;0.50;;
28009;SDS011;15334;49.494;8.410;2022-10-15T13:45:02;1.85;;;0.50;;
28009;SDS011;15334;49.494;8.410;2022-10-15T13:47:41;1.23;;;0.40;;
28009;SDS011;15334;49.494;8.410;2022-10-15T13:50:16;1.23;;;0.50;;
28009;SDS011;15334;49.494;8.410;2022-10-15T13:52:49;0.70;;;0.40;;
28009;SDS011;15334;49.494;8.410;2022-10-15T13:55:22;0.88;;;0.50;;
28009;SDS011;15334;49.494;8.410;2022-10-15T13:57:57;0.75;;;0.47;;
28009;SDS011;15334;49.494;8.410;2022-10-15T14:00:30;0.40;;;0.30;;
28009;SDS011;15334;49.494;8.410;2022-10-15T14:03:07;0.30;;;0.30;;
28009;SDS011;15334;49.494;8.410;2022-10-15T14:05:40;0.77;;;0.52;;
28009;SDS011;15334;49.494;8.410;2022-10-15T14:08:19;0.85;;;0.40;;
28009;SDS011;15334;49.494;8.410;2022-10-15T14:10:49;0.82;;;0.75;;
28009;SDS011;15334;49.494;8.410;2022-10-15T14:13:20;0.77;;;0.40;;
28009;SDS011;15334;49.494;8.410;2022-10-15T14:15:50;0.65;;;0.43;;
28009;SDS011;15334;49.494;8.410;2022-10-15T14:18:32;1.77;;;0.60;;
28009;SDS011;15334;49.494;8.410;2022-10-15T14:21:02;2.47;;;0.70;;
28009;SDS011;15334;49.494;8.410;2022-10-15T14:23:36;1.23;;;0.73;;
28009;SDS011;15334;49.494;8.410;2022-10-15T14:26:05;0.82;;;0.50;;
28009;SDS011;15334;49.494;8.410;2022-10-15T14:28:36;1.30;;;0.70;;
28009;SDS011;15334;49.494;8.410;2022-10-15T14:31:07;1.23;;;0.50;;
28009;SDS011;15334;49.494;8.410;2022-10-15T14:33:39;2.72;;;1.00;;
28009;SDS011;15334;49.494;8.410;2022-10-15T14:36:25;1.88;;;0.80;;
28009;SDS011;15334;49.494;8.410;2022-10-15T14:38:54;1.73;;;0.80;;
28009;SDS011;15334;49.494;8.410;2022-10-15T14:41:53;2.75;;;0.93;;
28009;SDS011;15334;49.494;8.410;2022-10-15T14:44:23;0.90;;;0.60;;
28009;SDS011;15334;49.494;8.410;2022-10-15T14:46:52;0.90;;;0.60;;
28009;SDS011;15334;49.494;8.410;2022-10-15T14:49:27;1.60;;;0.75;;
28009;SDS011;15334;49.494;8.410;2022-10-15T14:51:59;0.85;;;0.50;;
28009;SDS011;15334;49.494;8.410;2022-10-15T14:54:32;3.20;;;0.70;;
28009;SDS011;15334;49.494;8.410;2022-10-15T14:57:04;1.52;;;0.93;;
28009;SDS011;15334;49.494;8.410;2022-10-15T14:59:43;1.50;;;0.73;;
28009;SDS011;15334;49.494;8.410;2022-10-15T15:02:12;0.70;;;0.60;;
28009;SDS011;15334;49.494;8.410;2022-10-15T15:04:43;1.27;;;0.60;;
28009;SDS011;15334;49.494;8.410;2022-10-15T15:07:18;1.45;;;0.70;;
28009;SDS011;15334;49.494;8.410;2022-10-15T15:09:47;3.13;;;0.77;;
28009;SDS011;15334;49.494;8.410;2022-10-15T15:12:18;1.45;;;0.70;;
28009;SDS011;15334;49.494;8.410;2022-10-15T15:14:54;1.13;;;0.60;;
28009;SDS011;15334;49.494;8.410;2022-10-15T15:17:27;0.75;;;0.57;;
28009;SDS011;15334;49.494;8.410;2022-10-15T15:19:59;0.90;;;0.60;;
28009;SDS011;15334;49.494;8.410;2022-10-15T15:22:27;2.42;;;0.85;;
28009;SDS011;15334;49.494;8.410;2022-10-15T15:24:57;1.45;;;0.88;;
28009;SDS011;15334;49.494;8.410;2022-10-15T15:27:27;1.35;;;0.73;;
28009;SDS011;15334;49.494;8.410;2022-10-15T15:29:57;0.93;;;0.77;;
28009;SDS011;15334;49.494;8.410;2022-10-15T15:32:25;1.73;;;0.82;;
28009;SDS011;15334;49.494;8.410;2022-10-15T15:34:54;1.50;;;0.77;;
28009;SDS011;15334;49.494;8.410;2022-10-15T15:37:23;0.90;;;0.60;;
28009;SDS011;15334;49.494;8.410;2022-10-15T15:39:54;3.28;;;0.70;;
28009;SDS011;15334;49.494;8.410;2022-10-15T15:42:25;1.27;;;0.70;;
28009;SDS011;15334;49.494;8.410;2022-10-15T15:44:53;1.58;;;0.95;;
28009;SDS011;15334;49.494;8.410;2022-10-15T15:47:22;1.80;;;1.00;;
28009;SDS011;15334;49.494;8.410;2022-10-15T15:49:50;1.92;;;1.60;;
28009;SDS011;15334;49.494;8.410;2022-10-15T15:52:18;3.67;;;0.88;;